sensor_id;sensor_type;location;lat;lon;timestamp;P1;durP1;ratioP1;P2;durP2;ratioP2
73508;SDS011;61750;55.036;73.312;2022-08-05T00:00:33;10.48;;;4.30;;
73508;SDS011;61750;55.036;73.312;2022-08-05T00:05:33;9.90;;;3.92;;
73508;SDS011;61750;55.036;73.312;2022-08-05T00:08:08;4.70;;;2.10;;
73508;SDS011;61750;55.036;73.312;2022-08-05T00:10:45;19.92;;;4.05;;
73508;SDS011;61750;55.036;73.312;2022-08-05T00:13:11;8.90;;;3.00;;
73508;SDS011;61750;55.036;73.312;2022-08-05T00:15:38;20.48;;;4.63;;
73508;SDS011;61750;55.036;73.312;2022-08-05T00:18:14;16.23;;;4.65;;
73508;SDS011;61750;55.036;73.312;2022-08-05T00:20:40;12.05;;;3.53;;
73508;SDS011;61750;55.036;73.312;2022-08-05T00:23:11;11.05;;;3.78;;
73508;SDS011;61750;55.036;73.312;2022-08-05T00:25:38;14.00;;;3.83;;
73508;SDS011;61750;55.036;73.312;2022-08-05T00:30:37;18.17;;;4.30;;
73508;SDS011;61750;55.036;73.312;2022-08-05T00:35:33;21.48;;;4.45;;
73508;SDS011;61750;55.036;73.312;2022-08-05T00:40:32;18.75;;;4.68;;
73508;SDS011;61750;55.036;73.312;2022-08-05T00:45:33;17.08;;;4.45;;
73508;SDS011;61750;55.036;73.312;2022-08-05T00:50:38;20.88;;;4.63;;
73508;SDS011;61750;55.036;73.312;2022-08-05T00:53:11;14.02;;;4.13;;
73508;SDS011;61750;55.036;73.312;2022-08-05T01:00:44;15.70;;;4.03;;
73508;SDS011;61750;55.036;73.312;2022-08-05T01:03:21;17.80;;;4.22;;
73508;SDS011;61750;55.036;73.312;2022-08-05T01:05:52;19.27;;;4.40;;
73508;SDS011;61750;55.036;73.312;2022-08-05T01:08:18;20.38;;;4.90;;
73508;SDS011;61750;55.036;73.312;2022-08-05T01:10:50;27.33;;;5.05;;
73508;SDS011;61750;55.036;73.312;2022-08-05T01:13:51;12.30;;;4.32;;
73508;SDS011;61750;55.036;73.312;2022-08-05T01:16:13;15.52;;;4.38;;
73508;SDS011;61750;55.036;73.312;2022-08-05T01:19:18;23.70;;;5.78;;
73508;SDS011;61750;55.036;73.312;2022-08-05T01:21:55;19.15;;;7.15;;
73508;SDS011;61750;55.036;73.312;2022-08-05T01:30:38;17.20;;;5.18;;
73508;SDS011;61750;55.036;73.312;2022-08-05T01:33:33;16.58;;;4.90;;
73508;SDS011;61750;55.036;73.312;2022-08-05T01:36:05;15.25;;;4.05;;
73508;SDS011;61750;55.036;73.312;2022-08-05T01:38:35;15.93;;;4.13;;
73508;SDS011;61750;55.036;73.312;2022-08-05T01:41:03;12.32;;;3.30;;
73508;SDS011;61750;55.036;73.312;2022-08-05T01:43:31;12.85;;;4.28;;
73508;SDS011;61750;55.036;73.312;2022-08-05T01:46:04;14.02;;;3.55;;
73508;SDS011;61750;55.036;73.312;2022-08-05T01:48:41;10.00;;;3.30;;
73508;SDS011;61750;55.036;73.312;2022-08-05T01:59:40;14.30;;;3.83;;
73508;SDS011;61750;55.036;73.312;2022-08-05T02:02:08;8.52;;;3.28;;
73508;SDS011;61750;55.036;73.312;2022-08-05T02:04:37;10.38;;;3.10;;
73508;SDS011;61750;55.036;73.312;2022-08-05T02:07:33;10.23;;;3.22;;
73508;SDS011;61750;55.036;73.312;2022-08-05T02:17:11;17.05;;;3.42;;
73508;SDS011;61750;55.036;73.312;2022-08-05T02:19:59;12.57;;;3.47;;
73508;SDS011;61750;55.036;73.312;2022-08-05T02:22:35;12.18;;;3.13;;
73508;SDS011;61750;55.036;73.312;2022-08-05T02:27:37;10.85;;;3.28;;
73508;SDS011;61750;55.036;73.312;2022-08-05T02:30:16;9.70;;;3.60;;
73508;SDS011;61750;55.036;73.312;2022-08-05T02:32:45;11.25;;;3.30;;
73508;SDS011;61750;55.036;73.312;2022-08-05T02:35:18;10.10;;;2.37;;
73508;SDS011;61750;55.036;73.312;2022-08-05T02:37:55;9.63;;;2.72;;
73508;SDS011;61750;55.036;73.312;2022-08-05T02:40:23;7.65;;;2.63;;
73508;SDS011;61750;55.036;73.312;2022-08-05T02:42:50;11.40;;;3.10;;
73508;SDS011;61750;55.036;73.312;2022-08-05T02:45:18;14.38;;;3.47;;
73508;SDS011;61750;55.036;73.312;2022-08-05T02:47:57;12.13;;;3.95;;
73508;SDS011;61750;55.036;73.312;2022-08-05T02:50:31;8.82;;;2.60;;
73508;SDS011;61750;55.036;73.312;2022-08-05T02:52:57;6.50;;;2.90;;
73508;SDS011;61750;55.036;73.312;2022-08-05T02:55:24;9.20;;;2.60;;
73508;SDS011;61750;55.036;73.312;2022-08-05T02:57:57;6.25;;;2.55;;
73508;SDS011;61750;55.036;73.312;2022-08-05T03:00:24;11.10;;;3.03;;
73508;SDS011;61750;55.036;73.312;2022-08-05T03:02:51;15.20;;;3.22;;
73508;SDS011;61750;55.036;73.312;2022-08-05T03:05:18;18.53;;;2.90;;
73508;SDS011;61750;55.036;73.312;2022-08-05T03:07:55;12.50;;;2.70;;
73508;SDS011;61750;55.036;73.312;2022-08-05T03:10:31;7.05;;;2.75;;
73508;SDS011;61750;55.036;73.312;2022-08-05T03:12:57;8.65;;;2.75;;
73508;SDS011;61750;55.036;73.312;2022-08-05T03:15:24;9.77;;;2.80;;
73508;SDS011;61750;55.036;73.312;2022-08-05T03:17:53;11.75;;;2.83;;
73508;SDS011;61750;55.036;73.312;2022-08-05T03:20:22;5.78;;;2.85;;
73508;SDS011;61750;55.036;73.312;2022-08-05T03:22:48;6.00;;;2.30;;
73508;SDS011;61750;55.036;73.312;2022-08-05T03:25:15;5.97;;;2.45;;
73508;SDS011;61750;55.036;73.312;2022-08-05T03:27:43;7.20;;;2.00;;
73508;SDS011;61750;55.036;73.312;2022-08-05T03:30:10;2.60;;;1.50;;
73508;SDS011;61750;55.036;73.312;2022-08-05T03:32:36;8.55;;;2.90;;
73508;SDS011;61750;55.036;73.312;2022-08-05T03:37:33;5.72;;;2.35;;
73508;SDS011;61750;55.036;73.312;2022-08-05T03:42:34;10.00;;;3.00;;
73508;SDS011;61750;55.036;73.312;2022-08-05T03:47:34;5.95;;;2.47;;
73508;SDS011;61750;55.036;73.312;2022-08-05T03:52:36;5.13;;;2.50;;
73508;SDS011;61750;55.036;73.312;2022-08-05T11:44:42;9.60;;;2.17;;
73508;SDS011;61750;55.036;73.312;2022-08-05T12:45:13;8.95;;;2.97;;
73508;SDS011;61750;55.036;73.312;2022-08-05T12:47:39;9.73;;;3.28;;
73508;SDS011;61750;55.036;73.312;2022-08-05T12:50:12;8.23;;;2.25;;
73508;SDS011;61750;55.036;73.312;2022-08-05T14:07:25;9.68;;;2.80;;
73508;SDS011;61750;55.036;73.312;2022-08-05T14:10:06;5.93;;;2.40;;
73508;SDS011;61750;55.036;73.312;2022-08-05T14:12:43;13.65;;;3.05;;
73508;SDS011;61750;55.036;73.312;2022-08-05T14:17:42;16.10;;;3.67;;
73508;SDS011;61750;55.036;73.312;2022-08-05T14:20:19;22.35;;;2.10;;
73508;SDS011;61750;55.036;73.312;2022-08-05T14:22:45;11.98;;;3.90;;
73508;SDS011;61750;55.036;73.312;2022-08-05T14:25:17;9.80;;;2.50;;
73508;SDS011;61750;55.036;73.312;2022-08-05T14:27:46;17.27;;;4.65;;
73508;SDS011;61750;55.036;73.312;2022-08-05T14:32:42;18.30;;;3.90;;
73508;SDS011;61750;55.036;73.312;2022-08-05T14:37:42;25.48;;;5.00;;
73508;SDS011;61750;55.036;73.312;2022-08-05T14:42:42;29.65;;;12.93;;
73508;SDS011;61750;55.036;73.312;2022-08-05T14:45:08;38.50;;;6.97;;
73508;SDS011;61750;55.036;73.312;2022-08-05T14:47:35;41.08;;;9.30;;
73508;SDS011;61750;55.036;73.312;2022-08-05T14:52:42;39.58;;;8.68;;
73508;SDS011;61750;55.036;73.312;2022-08-05T14:57:42;35.75;;;7.70;;
73508;SDS011;61750;55.036;73.312;2022-08-05T15:02:42;32.83;;;8.20;;
73508;SDS011;61750;55.036;73.312;2022-08-05T15:07:42;28.85;;;8.13;;
73508;SDS011;61750;55.036;73.312;2022-08-05T15:12:42;32.90;;;9.98;;
73508;SDS011;61750;55.036;73.312;2022-08-05T15:15:08;35.08;;;10.88;;
73508;SDS011;61750;55.036;73.312;2022-08-05T15:17:35;39.00;;;11.23;;
73508;SDS011;61750;55.036;73.312;2022-08-05T15:22:42;53.33;;;13.98;;
73508;SDS011;61750;55.036;73.312;2022-08-05T15:27:42;47.22;;;15.10;;
73508;SDS011;61750;55.036;73.312;2022-08-05T15:32:42;44.17;;;12.88;;
73508;SDS011;61750;55.036;73.312;2022-08-05T15:37:52;50.72;;;13.93;;
73508;SDS011;61750;55.036;73.312;2022-08-05T15:40:18;29.05;;;6.25;;
73508;SDS011;61750;55.036;73.312;2022-08-05T15:42:45;35.88;;;11.30;;
73508;SDS011;61750;55.036;73.312;2022-08-05T15:45:11;42.35;;;10.20;;
73508;SDS011;61750;55.036;73.312;2022-08-05T15:47:42;35.78;;;10.90;;
73508;SDS011;61750;55.036;73.312;2022-08-05T15:52:42;43.47;;;12.20;;
73508;SDS011;61750;55.036;73.312;2022-08-05T15:57:44;46.58;;;14.23;;
73508;SDS011;61750;55.036;73.312;2022-08-05T16:02:52;54.92;;;14.63;;
73508;SDS011;61750;55.036;73.312;2022-08-05T16:05:28;53.10;;;14.30;;
73508;SDS011;61750;55.036;73.312;2022-08-05T16:07:55;56.55;;;15.05;;
73508;SDS011;61750;55.036;73.312;2022-08-05T16:10:21;48.37;;;10.37;;
73508;SDS011;61750;55.036;73.312;2022-08-05T16:12:55;53.28;;;13.27;;
73508;SDS011;61750;55.036;73.312;2022-08-05T16:15:21;53.65;;;16.83;;
73508;SDS011;61750;55.036;73.312;2022-08-05T16:20:19;33.70;;;7.30;;
73508;SDS011;61750;55.036;73.312;2022-08-05T16:22:46;51.45;;;11.85;;
73508;SDS011;61750;55.036;73.312;2022-08-05T16:27:47;48.67;;;13.48;;
73508;SDS011;61750;55.036;73.312;2022-08-05T16:30:18;20.70;;;7.75;;
73508;SDS011;61750;55.036;73.312;2022-08-05T16:37:42;47.38;;;12.75;;
73508;SDS011;61750;55.036;73.312;2022-08-05T16:42:42;44.88;;;11.68;;
73508;SDS011;61750;55.036;73.312;2022-08-05T16:45:08;52.92;;;13.82;;
73508;SDS011;61750;55.036;73.312;2022-08-05T16:52:42;44.28;;;11.88;;
73508;SDS011;61750;55.036;73.312;2022-08-05T16:57:42;35.65;;;9.35;;
73508;SDS011;61750;55.036;73.312;2022-08-05T17:02:42;30.33;;;9.00;;
73508;SDS011;61750;55.036;73.312;2022-08-05T17:07:42;32.08;;;8.98;;
73508;SDS011;61750;55.036;73.312;2022-08-05T17:12:42;34.67;;;13.45;;
73508;SDS011;61750;55.036;73.312;2022-08-05T17:15:08;22.65;;;9.57;;
73508;SDS011;61750;55.036;73.312;2022-08-05T17:17:35;28.80;;;10.05;;
73508;SDS011;61750;55.036;73.312;2022-08-05T17:23:08;22.15;;;8.30;;
73508;SDS011;61750;55.036;73.312;2022-08-05T17:25:34;20.13;;;7.78;;
73508;SDS011;61750;55.036;73.312;2022-08-05T17:28:23;33.42;;;8.82;;
73508;SDS011;61750;55.036;73.312;2022-08-05T17:30:55;36.38;;;9.60;;
73508;SDS011;61750;55.036;73.312;2022-08-05T17:33:26;36.20;;;10.48;;
73508;SDS011;61750;55.036;73.312;2022-08-05T17:36:04;32.83;;;10.77;;
73508;SDS011;61750;55.036;73.312;2022-08-05T17:38:39;43.03;;;12.27;;
73508;SDS011;61750;55.036;73.312;2022-08-05T17:41:08;39.15;;;11.13;;
73508;SDS011;61750;55.036;73.312;2022-08-05T17:43:34;36.22;;;12.15;;
73508;SDS011;61750;55.036;73.312;2022-08-05T17:48:42;37.00;;;12.68;;
73508;SDS011;61750;55.036;73.312;2022-08-05T17:51:08;43.53;;;11.98;;
73508;SDS011;61750;55.036;73.312;2022-08-05T17:53:35;42.58;;;11.55;;
73508;SDS011;61750;55.036;73.312;2022-08-05T17:56:01;37.25;;;12.18;;
73508;SDS011;61750;55.036;73.312;2022-08-05T17:58:28;36.92;;;12.73;;
73508;SDS011;61750;55.036;73.312;2022-08-05T18:00:59;34.33;;;12.35;;
73508;SDS011;61750;55.036;73.312;2022-08-05T18:03:26;34.08;;;12.85;;
73508;SDS011;61750;55.036;73.312;2022-08-05T18:05:52;33.55;;;11.75;;
73508;SDS011;61750;55.036;73.312;2022-08-05T18:08:25;38.50;;;12.02;;
73508;SDS011;61750;55.036;73.312;2022-08-05T18:10:51;36.33;;;12.98;;
73508;SDS011;61750;55.036;73.312;2022-08-05T18:13:17;37.55;;;13.63;;
73508;SDS011;61750;55.036;73.312;2022-08-05T18:18:09;37.67;;;12.23;;
73508;SDS011;61750;55.036;73.312;2022-08-05T18:20:35;42.17;;;12.77;;
73508;SDS011;61750;55.036;73.312;2022-08-05T18:23:02;33.92;;;12.60;;
73508;SDS011;61750;55.036;73.312;2022-08-05T18:25:28;32.20;;;10.77;;
73508;SDS011;61750;55.036;73.312;2022-08-05T18:28:00;41.05;;;12.18;;
73508;SDS011;61750;55.036;73.312;2022-08-05T18:30:27;26.55;;;11.38;;
73508;SDS011;61750;55.036;73.312;2022-08-05T18:32:53;27.05;;;10.75;;
73508;SDS011;61750;55.036;73.312;2022-08-05T18:35:20;22.50;;;7.80;;
73508;SDS011;61750;55.036;73.312;2022-08-05T18:37:46;32.45;;;10.63;;
73508;SDS011;61750;55.036;73.312;2022-08-05T18:42:45;31.33;;;10.55;;
73508;SDS011;61750;55.036;73.312;2022-08-05T18:45:12;34.20;;;11.47;;
73508;SDS011;61750;55.036;73.312;2022-08-05T18:47:44;37.00;;;11.02;;
73508;SDS011;61750;55.036;73.312;2022-08-05T18:53:00;37.55;;;10.20;;
73508;SDS011;61750;55.036;73.312;2022-08-05T18:55:26;33.22;;;9.02;;
73508;SDS011;61750;55.036;73.312;2022-08-05T18:57:52;33.15;;;10.38;;
73508;SDS011;61750;55.036;73.312;2022-08-05T19:00:19;18.55;;;6.00;;
73508;SDS011;61750;55.036;73.312;2022-08-05T19:02:47;26.98;;;9.88;;
73508;SDS011;61750;55.036;73.312;2022-08-05T19:07:43;25.52;;;10.30;;
73508;SDS011;61750;55.036;73.312;2022-08-05T19:12:46;29.70;;;10.27;;
73508;SDS011;61750;55.036;73.312;2022-08-05T19:15:13;18.17;;;8.88;;
73508;SDS011;61750;55.036;73.312;2022-08-05T19:17:44;32.17;;;10.25;;
73508;SDS011;61750;55.036;73.312;2022-08-05T19:22:43;16.45;;;7.55;;
73508;SDS011;61750;55.036;73.312;2022-08-05T19:25:17;2.90;;;2.10;;
73508;SDS011;61750;55.036;73.312;2022-08-05T19:27:44;21.50;;;7.97;;
73508;SDS011;61750;55.036;73.312;2022-08-05T19:32:42;18.20;;;6.75;;
73508;SDS011;61750;55.036;73.312;2022-08-05T19:37:42;15.80;;;7.25;;
73508;SDS011;61750;55.036;73.312;2022-08-05T19:42:42;20.17;;;6.80;;
73508;SDS011;61750;55.036;73.312;2022-08-05T19:45:08;23.25;;;7.38;;
73508;SDS011;61750;55.036;73.312;2022-08-05T19:47:34;15.93;;;7.22;;
73508;SDS011;61750;55.036;73.312;2022-08-05T19:52:42;15.70;;;6.07;;
73508;SDS011;61750;55.036;73.312;2022-08-05T19:57:42;18.27;;;6.78;;
73508;SDS011;61750;55.036;73.312;2022-08-05T20:03:00;19.23;;;7.25;;
73508;SDS011;61750;55.036;73.312;2022-08-05T20:05:32;13.88;;;5.72;;
73508;SDS011;61750;55.036;73.312;2022-08-05T20:08:08;13.38;;;5.95;;
73508;SDS011;61750;55.036;73.312;2022-08-05T20:10:34;10.68;;;6.30;;
73508;SDS011;61750;55.036;73.312;2022-08-05T20:13:05;14.35;;;5.78;;
73508;SDS011;61750;55.036;73.312;2022-08-05T20:15:32;14.25;;;6.18;;
73508;SDS011;61750;55.036;73.312;2022-08-05T20:18:06;13.48;;;5.25;;
73508;SDS011;61750;55.036;73.312;2022-08-05T20:20:33;12.05;;;5.32;;
73508;SDS011;61750;55.036;73.312;2022-08-05T20:23:04;17.38;;;5.07;;
73508;SDS011;61750;55.036;73.312;2022-08-05T20:25:31;13.40;;;5.13;;
73508;SDS011;61750;55.036;73.312;2022-08-05T20:27:57;13.38;;;5.20;;
73508;SDS011;61750;55.036;73.312;2022-08-05T20:30:23;6.50;;;4.28;;
73508;SDS011;61750;55.036;73.312;2022-08-05T20:32:52;12.75;;;5.40;;
73508;SDS011;61750;55.036;73.312;2022-08-05T20:35:29;14.75;;;4.95;;
73508;SDS011;61750;55.036;73.312;2022-08-05T20:37:55;13.35;;;5.60;;
73508;SDS011;61750;55.036;73.312;2022-08-05T20:40:32;14.32;;;4.90;;
73508;SDS011;61750;55.036;73.312;2022-08-05T20:43:00;12.02;;;5.50;;
73508;SDS011;61750;55.036;73.312;2022-08-05T20:45:35;16.70;;;5.63;;
73508;SDS011;61750;55.036;73.312;2022-08-05T20:48:01;13.43;;;6.22;;
73508;SDS011;61750;55.036;73.312;2022-08-05T20:50:28;9.55;;;4.75;;
73508;SDS011;61750;55.036;73.312;2022-08-05T20:53:04;11.32;;;5.22;;
73508;SDS011;61750;55.036;73.312;2022-08-05T20:55:41;8.63;;;4.88;;
73508;SDS011;61750;55.036;73.312;2022-08-05T20:58:17;9.77;;;4.87;;
73508;SDS011;61750;55.036;73.312;2022-08-05T21:00:49;13.48;;;5.68;;
73508;SDS011;61750;55.036;73.312;2022-08-05T21:03:16;10.82;;;4.97;;
73508;SDS011;61750;55.036;73.312;2022-08-05T21:05:42;9.30;;;5.60;;
73508;SDS011;61750;55.036;73.312;2022-08-05T21:08:08;14.90;;;5.60;;
73508;SDS011;61750;55.036;73.312;2022-08-05T21:10:34;12.70;;;5.55;;
73508;SDS011;61750;55.036;73.312;2022-08-05T21:13:10;9.07;;;5.03;;
73508;SDS011;61750;55.036;73.312;2022-08-05T21:15:37;11.38;;;5.05;;
73508;SDS011;61750;55.036;73.312;2022-08-05T21:18:03;13.30;;;5.15;;
73508;SDS011;61750;55.036;73.312;2022-08-05T21:20:40;12.85;;;4.78;;
73508;SDS011;61750;55.036;73.312;2022-08-05T21:23:06;8.52;;;4.70;;
73508;SDS011;61750;55.036;73.312;2022-08-05T21:25:37;9.25;;;4.60;;
73508;SDS011;61750;55.036;73.312;2022-08-05T21:28:09;11.35;;;4.20;;
73508;SDS011;61750;55.036;73.312;2022-08-05T21:30:41;12.70;;;5.00;;
73508;SDS011;61750;55.036;73.312;2022-08-05T21:33:07;8.23;;;4.20;;
73508;SDS011;61750;55.036;73.312;2022-08-05T21:35:39;15.52;;;5.03;;
73508;SDS011;61750;55.036;73.312;2022-08-05T21:38:09;14.40;;;4.35;;
73508;SDS011;61750;55.036;73.312;2022-08-05T21:40:35;8.70;;;4.25;;
73508;SDS011;61750;55.036;73.312;2022-08-05T21:43:02;13.93;;;4.60;;
73508;SDS011;61750;55.036;73.312;2022-08-05T21:45:28;8.73;;;4.80;;
73508;SDS011;61750;55.036;73.312;2022-08-05T21:47:54;16.80;;;4.93;;
73508;SDS011;61750;55.036;73.312;2022-08-05T21:50:21;13.20;;;4.37;;
73508;SDS011;61750;55.036;73.312;2022-08-05T21:52:47;9.73;;;4.68;;
73508;SDS011;61750;55.036;73.312;2022-08-05T21:57:43;14.90;;;7.25;;
73508;SDS011;61750;55.036;73.312;2022-08-05T22:02:43;17.17;;;5.93;;
73508;SDS011;61750;55.036;73.312;2022-08-05T22:07:49;10.65;;;5.10;;
73508;SDS011;61750;55.036;73.312;2022-08-05T22:12:43;13.65;;;5.10;;
73508;SDS011;61750;55.036;73.312;2022-08-05T22:15:13;11.68;;;4.78;;
73508;SDS011;61750;55.036;73.312;2022-08-05T22:17:44;10.18;;;4.85;;
73508;SDS011;61750;55.036;73.312;2022-08-05T22:22:42;10.60;;;4.65;;
73508;SDS011;61750;55.036;73.312;2022-08-05T22:25:28;8.07;;;4.27;;
73508;SDS011;61750;55.036;73.312;2022-08-05T22:28:12;12.90;;;4.40;;
73508;SDS011;61750;55.036;73.312;2022-08-05T22:30:39;14.65;;;4.72;;
73508;SDS011;61750;55.036;73.312;2022-08-05T22:33:15;14.30;;;4.50;;
73508;SDS011;61750;55.036;73.312;2022-08-05T22:35:42;15.93;;;4.95;;
73508;SDS011;61750;55.036;73.312;2022-08-05T22:40:35;13.03;;;4.77;;
73508;SDS011;61750;55.036;73.312;2022-08-05T22:43:01;9.77;;;4.25;;
73508;SDS011;61750;55.036;73.312;2022-08-05T22:45:28;7.53;;;4.22;;
73508;SDS011;61750;55.036;73.312;2022-08-05T22:50:27;8.48;;;3.55;;
73508;SDS011;61750;55.036;73.312;2022-08-05T22:52:53;10.15;;;3.92;;
73508;SDS011;61750;55.036;73.312;2022-08-05T22:55:20;6.65;;;3.05;;
73508;SDS011;61750;55.036;73.312;2022-08-05T22:57:52;15.27;;;3.83;;
73508;SDS011;61750;55.036;73.312;2022-08-05T23:00:24;13.63;;;5.23;;
73508;SDS011;61750;55.036;73.312;2022-08-05T23:02:50;8.93;;;4.72;;
73508;SDS011;61750;55.036;73.312;2022-08-05T23:05:18;3.20;;;1.60;;
73508;SDS011;61750;55.036;73.312;2022-08-05T23:07:46;8.13;;;4.20;;
73508;SDS011;61750;55.036;73.312;2022-08-05T23:12:51;10.75;;;4.60;;
73508;SDS011;61750;55.036;73.312;2022-08-05T23:15:18;7.17;;;3.90;;
73508;SDS011;61750;55.036;73.312;2022-08-05T23:17:44;7.63;;;3.70;;
73508;SDS011;61750;55.036;73.312;2022-08-05T23:22:42;11.25;;;4.70;;
73508;SDS011;61750;55.036;73.312;2022-08-05T23:27:42;8.93;;;3.55;;
73508;SDS011;61750;55.036;73.312;2022-08-05T23:32:42;16.40;;;4.32;;
73508;SDS011;61750;55.036;73.312;2022-08-05T23:37:42;13.68;;;5.00;;
73508;SDS011;61750;55.036;73.312;2022-08-05T23:42:42;7.40;;;3.78;;
73508;SDS011;61750;55.036;73.312;2022-08-05T23:45:08;8.60;;;4.75;;
73508;SDS011;61750;55.036;73.312;2022-08-05T23:47:35;7.75;;;4.00;;
73508;SDS011;61750;55.036;73.312;2022-08-05T23:52:42;12.52;;;5.05;;
73508;SDS011;61750;55.036;73.312;2022-08-05T23:57:42;45.40;;;23.60;;
